Time;durP1;ratioP1;P1;durP2;ratioP2;P2;SDS_P1;SDS_P2;PMS_P1;PMS_P2;Temp;Humidity;BMP_temperature;BMP_pressure;BME280_temperature;BME280_humidity;BME280_pressure;Samples;Min_cycle;Max_cycle;Signal;HPM_P1;HPM_P2
2023/07/05 00:01:28;;;;;;;17.70;7.43;;;;;;;-142.75;100.00;75389.38;5042500;28;20071;-61
2023/07/05 00:03:53;;;;;;;11.23;6.28;;;;;;;-142.75;100.00;75393.31;5044827;28;20048;-61
2023/07/05 00:06:18;;;;;;;15.65;7.38;;;;;;;-142.75;100.00;75385.44;5043232;28;20021;-61
2023/07/05 00:08:44;;;;;;;15.70;6.85;;;;;;;-142.75;100.00;75365.75;5042790;28;20025;-60
2023/07/05 00:11:11;;;;;;;11.27;6.25;;;;;;;-142.75;100.00;75352.00;5047876;28;20511;-61
2023/07/05 00:13:36;;;;;;;12.82;6.90;;;;;;;-142.75;100.00;75350.03;5042230;28;20025;-61
2023/07/05 00:16:02;;;;;;;14.57;6.90;;;;;;;-142.75;100.00;75340.19;5041882;28;20044;-60
2023/07/05 00:18:28;;;;;;;14.02;6.50;;;;;;;-142.75;100.00;75324.44;5042268;28;20028;-61
2023/07/05 00:20:59;;;;;;;12.90;6.88;;;;;;;-142.75;100.00;75302.78;5044866;28;20079;-61
2023/07/05 00:23:24;;;;;;;14.30;6.88;;;;;;;-142.75;100.00;75308.69;5050960;28;20029;-61
2023/07/05 00:25:50;;;;;;;11.18;6.53;;;;;;;-142.75;100.00;75316.56;5041301;28;20108;-60
2023/07/05 00:28:15;;;;;;;14.95;7.75;;;;;;;-142.75;100.00;75291.00;5042368;28;20103;-57
2023/07/05 00:30:45;;;;;;;15.77;7.18;;;;;;;-142.75;100.00;75277.22;5042445;28;20106;-61
2023/07/05 00:33:10;;;;;;;12.57;6.63;;;;;;;-142.75;100.00;75298.84;5040815;28;20582;-61
2023/07/05 00:35:35;;;;;;;13.68;6.97;;;;;;;-142.75;100.00;75277.22;5045277;28;20025;-59
2023/07/05 00:38:01;;;;;;;11.88;7.22;;;;;;;-142.75;100.00;75269.34;5043077;28;20036;-61
2023/07/05 00:40:26;;;;;;;11.35;6.85;;;;;;;-142.75;100.00;75255.56;5046245;28;20024;-61
2023/07/05 00:42:51;;;;;;;15.25;6.70;;;;;;;-142.75;100.00;75245.72;5046771;28;20021;-61
2023/07/05 00:45:19;;;;;;;16.33;6.43;;;;;;;-142.75;100.00;75216.22;5043548;28;20097;-62
2023/07/05 00:47:46;;;;;;;16.38;6.10;;;;;;;-142.75;100.00;75229.97;5047456;28;20031;-62
2023/07/05 00:50:37;;;;;;;12.15;5.53;;;;;;;-142.75;100.00;75196.53;5054254;28;20044;-62
2023/07/05 00:53:03;;;;;;;11.07;5.90;;;;;;;-142.75;100.00;75196.53;5045248;28;20025;-61
2023/07/05 00:55:29;;;;;;;12.80;6.40;;;;;;;-142.75;100.00;75196.53;5045069;28;20021;-63
2023/07/05 00:57:55;;;;;;;14.73;6.03;;;;;;;-142.75;100.00;75172.91;5046166;28;20029;-61
2023/07/05 01:00:22;;;;;;;13.35;5.07;;;;;;;-142.75;100.00;75167.00;5045624;28;20431;-62
2023/07/05 01:02:52;;;;;;;10.85;5.78;;;;;;;-142.75;100.00;75157.19;5045704;28;20030;-61
2023/07/05 01:05:17;;;;;;;10.13;4.68;;;;;;;-142.75;100.00;75174.88;5045441;28;20021;-61
2023/07/05 01:07:43;;;;;;;11.50;4.70;;;;;;;-142.75;100.00;75163.09;5045965;28;20416;-62
2023/07/05 01:10:20;;;;;;;9.07;3.58;;;;;;;-142.75;100.00;75176.84;5045615;28;20079;-62
2023/07/05 01:12:49;;;;;;;6.57;3.53;;;;;;;-142.75;100.00;75139.47;5045093;28;20105;-62
2023/07/05 01:15:31;;;;;;;8.70;3.60;;;;;;;-142.75;100.00;75119.78;5045764;28;20057;-62
2023/07/05 01:18:23;;;;;;;6.82;2.83;;;;;;;-142.75;100.00;75129.63;5045755;28;20053;-61
2023/07/05 01:21:04;;;;;;;7.88;2.70;;;;;;;-142.75;100.00;75143.41;5051404;28;20503;-62
2023/07/05 01:23:44;;;;;;;6.72;2.55;;;;;;;-142.75;100.00;75133.56;5048244;28;20114;-61
2023/07/05 01:26:47;;;;;;;6.18;2.33;;;;;;;-142.75;100.00;75133.56;5045099;28;20110;-61
2023/07/05 01:29:51;;;;;;;5.13;1.85;;;;;;;-142.75;100.00;75153.25;5045540;28;20024;-62
2023/07/05 01:32:23;;;;;;;3.75;1.60;;;;;;;-142.75;100.00;75172.91;5044994;28;20025;-61
2023/07/05 01:35:26;;;;;;;2.78;1.30;;;;;;;-142.75;100.00;75190.63;5044996;28;20484;-61
2023/07/05 01:37:52;;;;;;;3.95;1.58;;;;;;;-142.75;100.00;75231.94;5022225;28;20661;-62
2023/07/05 01:40:20;;;;;;;4.07;1.40;;;;;;;-142.75;100.00;75231.94;5040439;28;20115;-61
2023/07/05 01:42:47;;;;;;;6.18;1.52;;;;;;;-142.75;100.00;75255.56;5045440;28;20029;-61
2023/07/05 01:45:13;;;;;;;7.63;1.63;;;;;;;-142.75;100.00;75269.34;5044955;28;20100;-60
2023/07/05 01:47:45;;;;;;;3.30;1.08;;;;;;;-142.75;100.00;75271.31;5045568;28;20115;-61
2023/07/05 01:50:26;;;;;;;5.30;1.42;;;;;;;-142.75;100.00;75267.38;5045509;28;20035;-61
2023/07/05 01:53:09;;;;;;;5.63;1.25;;;;;;;-142.75;100.00;75298.84;5043929;28;20021;-61
2023/07/05 01:55:54;;;;;;;7.55;1.38;;;;;;;-142.75;100.00;75306.72;5044384;28;20029;-61
2023/07/05 01:58:23;;;;;;;6.00;1.42;;;;;;;-142.75;100.00;75334.28;5044995;28;20028;-62
2023/07/05 02:00:50;;;;;;;6.72;1.83;;;;;;;-142.75;100.00;75334.28;5047286;28;20055;-62
2023/07/05 02:03:19;;;;;;;6.10;2.15;;;;;;;-142.75;100.00;75334.28;5043308;28;20047;-62
2023/07/05 02:05:47;;;;;;;5.20;1.95;;;;;;;-142.75;100.00;75350.03;5044860;28;20025;-60
2023/07/05 02:08:13;;;;;;;3.70;1.70;;;;;;;-142.75;100.00;75350.03;5045756;28;20413;-64
2023/07/05 02:10:39;;;;;;;6.18;1.85;;;;;;;-142.75;100.00;75357.91;5044717;28;20040;-64
2023/07/05 02:13:07;;;;;;;6.93;1.80;;;;;;;-142.75;100.00;75357.91;5044419;28;20533;-62
2023/07/05 02:15:33;;;;;;;5.35;2.13;;;;;;;-142.75;100.00;75357.91;5043634;28;20033;-63
2023/07/05 02:17:59;;;;;;;11.30;2.80;;;;;;;-142.75;100.00;75359.88;5044568;28;20025;-64
2023/07/05 02:20:24;;;;;;;5.72;2.75;;;;;;;-142.75;100.00;75355.94;5044858;28;20020;-63
2023/07/05 02:22:49;;;;;;;7.63;3.20;;;;;;;-142.75;100.00;75365.75;5047003;28;20049;-63
2023/07/05 02:25:15;;;;;;;6.38;3.05;;;;;;;-142.75;100.00;75373.63;5044262;28;20021;-63
2023/07/05 02:27:40;;;;;;;5.68;3.25;;;;;;;-142.75;100.00;75373.63;5044597;28;20645;-62
2023/07/05 02:30:09;;;;;;;8.07;3.53;;;;;;;-142.75;100.00;75399.22;5044367;28;20031;-61
2023/07/05 02:32:34;;;;;;;4.88;2.70;;;;;;;-142.75;100.00;75422.84;5043369;28;20057;-66
2023/07/05 02:35:03;;;;;;;7.13;3.03;;;;;;;-142.75;100.00;75399.22;5051590;28;20064;-62
2023/07/05 02:37:32;;;;;;;5.82;2.80;;;;;;;-142.75;100.00;75416.94;5044091;28;20160;-63
2023/07/05 02:39:57;;;;;;;4.85;2.60;;;;;;;-142.75;100.00;75401.19;5043916;28;20035;-62
2023/07/05 02:42:24;;;;;;;6.43;2.45;;;;;;;-142.75;100.00;75420.88;5043916;28;20033;-63
2023/07/05 02:44:51;;;;;;;7.53;2.50;;;;;;;-142.75;100.00;75424.81;5043777;28;20175;-62
2023/07/05 02:47:18;;;;;;;5.88;2.17;;;;;;;-142.75;100.00;75432.69;5043025;28;20024;-62
2023/07/05 02:49:43;;;;;;;5.32;2.45;;;;;;;-142.75;100.00;75434.66;5048989;28;20067;-63
2023/07/05 02:52:09;;;;;;;9.23;2.92;;;;;;;-142.75;100.00;75436.59;5044248;28;20243;-63
2023/07/05 02:54:34;;;;;;;5.20;2.70;;;;;;;-142.75;100.00;75424.81;5043865;28;20024;-62
2023/07/05 02:57:00;;;;;;;7.82;2.58;;;;;;;-142.75;100.00;75444.47;5052188;28;20485;-62
2023/07/05 02:59:25;;;;;;;5.72;2.40;;;;;;;-142.75;100.00;75444.47;5043636;28;20048;-63
2023/07/05 03:01:50;;;;;;;8.50;2.70;;;;;;;-142.75;100.00;75428.75;5043636;28;20591;-63
2023/07/05 03:04:16;;;;;;;6.82;2.88;;;;;;;-142.75;100.00;75452.34;5043270;28;20020;-61
2023/07/05 03:06:41;;;;;;;7.53;2.42;;;;;;;-142.75;100.00;75462.19;5043840;28;20032;-60
2023/07/05 03:09:06;;;;;;;5.45;2.15;;;;;;;-142.75;100.00;75468.09;5051790;28;20104;-61
2023/07/05 03:11:32;;;;;;;6.65;2.13;;;;;;;-142.75;100.00;75452.34;5043425;28;20032;-60
2023/07/05 03:13:57;;;;;;;8.40;2.75;;;;;;;-142.75;100.00;75446.44;5043471;28;20033;-60
2023/07/05 03:16:22;;;;;;;10.60;2.70;;;;;;;-142.75;100.00;75452.34;5043213;28;20036;-61
2023/07/05 03:18:48;;;;;;;8.93;2.78;;;;;;;-142.75;100.00;75452.34;5043353;28;20056;-60
2023/07/05 03:21:13;;;;;;;7.70;2.67;;;;;;;-142.75;100.00;75442.50;5043897;28;20120;-62
2023/07/05 03:23:38;;;;;;;4.68;2.55;;;;;;;-142.75;100.00;75448.41;5042835;28;20052;-61
2023/07/05 03:26:09;;;;;;;7.72;2.83;;;;;;;-142.75;100.00;75436.59;5042336;28;20027;-62
2023/07/05 03:28:36;;;;;;;4.95;2.10;;;;;;;-142.75;100.00;75434.66;5043335;28;20108;-60
2023/07/05 03:31:09;;;;;;;4.45;2.50;;;;;;;-142.75;100.00;75436.59;5041651;28;20051;-61
2023/07/05 03:33:34;;;;;;;5.95;2.10;;;;;;;-142.75;100.00;75452.34;5042345;28;20029;-59
2023/07/05 03:36:03;;;;;;;8.07;2.13;;;;;;;-142.75;100.00;75428.75;5042250;28;20036;-60
2023/07/05 03:38:29;;;;;;;6.25;2.72;;;;;;;-142.75;100.00;75413.00;5042261;28;20067;-61
2023/07/05 03:41:00;;;;;;;6.07;2.53;;;;;;;-142.75;100.00;75405.13;5042209;28;20036;-61
2023/07/05 03:43:26;;;;;;;8.23;2.83;;;;;;;-142.75;100.00;75428.75;5042032;28;20086;-61
2023/07/05 03:45:53;;;;;;;7.13;2.30;;;;;;;-142.75;100.00;75448.41;5042390;28;20112;-61
2023/07/05 03:48:20;;;;;;;5.35;2.80;;;;;;;-142.75;100.00;75426.78;5041783;28;20165;-61
2023/07/05 03:50:45;;;;;;;5.65;2.20;;;;;;;-142.75;100.00;75442.50;5042997;28;20045;-60
2023/07/05 03:53:10;;;;;;;6.03;2.40;;;;;;;-142.75;100.00;75450.38;5042242;28;20104;-61
2023/07/05 03:55:36;;;;;;;11.43;3.20;;;;;;;-142.75;100.00;75468.09;5041701;28;20037;-62
2023/07/05 03:58:02;;;;;;;6.50;2.50;;;;;;;-142.75;100.00;75434.66;5042185;28;20028;-59
2023/07/05 04:00:27;;;;;;;5.18;1.95;;;;;;;-142.75;100.00;75440.53;5042352;28;20036;-62
2023/07/05 04:02:53;;;;;;;10.75;2.30;;;;;;;-142.75;100.00;75452.34;5048176;28;20052;-62
2023/07/05 04:05:19;;;;;;;6.60;2.08;;;;;;;-142.75;100.00;75438.56;5041725;28;20682;-62
2023/07/05 04:07:44;;;;;;;7.78;2.35;;;;;;;-142.75;100.00;75442.50;5042094;28;20754;-62
2023/07/05 04:10:10;;;;;;;5.95;3.28;;;;;;;-142.75;100.00;75448.41;5042262;28;20113;-62
2023/07/05 04:12:35;;;;;;;6.85;2.25;;;;;;;-142.75;100.00;75464.16;5042182;28;20032;-60
2023/07/05 04:15:00;;;;;;;5.15;2.33;;;;;;;-142.75;100.00;75468.09;5041193;28;20176;-59
2023/07/05 04:17:29;;;;;;;6.22;2.10;;;;;;;-142.75;100.00;75464.16;5042083;28;20064;-62
2023/07/05 04:19:54;;;;;;;6.55;2.40;;;;;;;-142.75;100.00;75464.16;5039309;28;20027;-62
2023/07/05 04:22:20;;;;;;;6.47;1.90;;;;;;;-142.75;100.00;75479.91;5041078;28;20512;-60
2023/07/05 04:24:45;;;;;;;2.90;1.38;;;;;;;-142.75;100.00;75483.84;5050973;28;20017;-59
2023/07/05 04:27:10;;;;;;;4.10;1.30;;;;;;;-142.75;100.00;75499.59;5047431;28;20033;-63
2023/07/05 04:29:36;;;;;;;4.75;1.30;;;;;;;-142.75;100.00;75513.38;5051103;28;20042;-62
2023/07/05 04:32:01;;;;;;;5.65;1.40;;;;;;;-142.75;100.00;75497.63;5055111;28;20028;-63
2023/07/05 04:34:26;;;;;;;4.40;1.38;;;;;;;-142.75;100.00;75497.63;5052221;28;20522;-63
2023/07/05 04:36:52;;;;;;;3.30;0.90;;;;;;;-142.75;100.00;75489.75;5045965;28;20060;-62
2023/07/05 04:39:17;;;;;;;4.82;0.95;;;;;;;-142.75;100.00;75487.78;5044395;28;20029;-63
2023/07/05 04:41:42;;;;;;;6.32;1.35;;;;;;;-142.75;100.00;75503.53;5046265;28;20063;-63
2023/07/05 04:44:09;;;;;;;5.15;1.40;;;;;;;-142.75;100.00;75497.63;5057544;28;20056;-62
2023/07/05 04:46:34;;;;;;;9.30;1.38;;;;;;;-142.75;100.00;75505.50;5055278;28;20029;-64
2023/07/05 04:49:00;;;;;;;2.20;0.95;;;;;;;-142.75;100.00;75523.19;5054543;28;20077;-63
2023/07/05 04:51:25;;;;;;;7.95;1.73;;;;;;;-142.75;100.00;75503.53;5054784;28;20656;-60
2023/07/05 04:53:50;;;;;;;4.88;1.52;;;;;;;-142.75;100.00;75523.19;5045350;28;20055;-61
2023/07/05 04:56:16;;;;;;;5.20;1.52;;;;;;;-142.75;100.00;75507.47;5045785;28;20060;-61
2023/07/05 04:58:41;;;;;;;5.80;1.50;;;;;;;-142.75;100.00;75523.19;5051373;28;20488;-62
2023/07/05 05:01:08;;;;;;;7.00;1.20;;;;;;;-142.75;100.00;75507.47;5055220;28;20055;-62
2023/07/05 05:03:33;;;;;;;4.32;1.65;;;;;;;-142.75;100.00;75505.50;5055502;28;20060;-62
2023/07/05 05:05:59;;;;;;;4.93;1.40;;;;;;;-142.75;100.00;75503.53;5044253;28;20047;-62
2023/07/05 05:08:25;;;;;;;10.60;2.15;;;;;;;-142.75;100.00;75501.56;5045655;28;20095;-60
2023/07/05 05:10:56;;;;;;;4.85;1.85;;;;;;;-142.75;100.00;75503.53;5046385;28;20029;-61
2023/07/05 05:13:22;;;;;;;5.03;1.70;;;;;;;-142.75;100.00;75527.13;5048113;28;20029;-62
2023/07/05 05:15:48;;;;;;;4.95;1.13;;;;;;;-142.75;100.00;75527.13;5047818;28;20219;-61
2023/07/05 05:18:13;;;;;;;4.82;1.45;;;;;;;-142.75;100.00;75568.47;5048399;28;20104;-62
2023/07/05 05:20:39;;;;;;;6.38;1.17;;;;;;;-142.75;100.00;75568.47;5047745;28;20049;-60
2023/07/05 05:23:05;;;;;;;9.25;1.65;;;;;;;-142.75;100.00;75617.66;5047950;28;20060;-62
2023/07/05 05:25:31;;;;;;;4.43;1.17;;;;;;;-142.75;100.00;75617.66;5047771;28;20025;-62
2023/07/05 05:27:57;;;;;;;7.15;1.30;;;;;;;-142.75;100.00;75629.47;5047962;28;20033;-61
2023/07/05 05:30:22;;;;;;;6.75;1.80;;;;;;;-142.75;100.00;75659.00;5047557;28;20051;-62
2023/07/05 05:32:48;;;;;;;3.42;1.73;;;;;;;-142.75;100.00;75672.78;5047744;28;20036;-62
2023/07/05 05:35:17;;;;;;;7.10;1.98;;;;;;;-142.75;100.00;75678.66;5047609;28;20500;-61
2023/07/05 05:37:43;;;;;;;5.10;1.27;;;;;;;-142.75;100.00;75696.38;5047600;28;20035;-61
2023/07/05 05:40:09;;;;;;;5.20;1.20;;;;;;;-142.75;100.00;75688.50;5047955;28;20423;-61
2023/07/05 05:42:35;;;;;;;7.38;1.45;;;;;;;-142.75;100.00;75700.31;5048226;28;20085;-61
2023/07/05 05:45:02;;;;;;;5.72;1.02;;;;;;;-142.75;100.00;75731.81;5045887;28;20095;-61
2023/07/05 05:47:27;;;;;;;3.78;1.20;;;;;;;-142.75;100.00;75731.81;5047410;28;20037;-61
2023/07/05 05:49:53;;;;;;;7.53;0.93;;;;;;;-142.75;100.00;75735.75;5047448;28;20031;-61
2023/07/05 05:52:18;;;;;;;5.88;1.08;;;;;;;-142.75;100.00;75755.44;5047738;28;20029;-61
2023/07/05 05:54:43;;;;;;;5.28;1.20;;;;;;;-142.75;100.00;75767.22;5047237;28;20428;-61
2023/07/05 05:57:09;;;;;;;4.00;1.50;;;;;;;-142.75;100.00;75767.22;5047235;28;20035;-62
2023/07/05 05:59:34;;;;;;;6.93;1.73;;;;;;;-142.75;100.00;75753.47;5047176;28;20063;-61
2023/07/05 06:02:00;;;;;;;6.25;1.70;;;;;;;-142.75;100.00;75755.44;5047095;28;20042;-62
2023/07/05 06:04:26;;;;;;;5.13;1.02;;;;;;;-142.75;100.00;75749.53;5046787;28;20671;-61
2023/07/05 06:06:51;;;;;;;10.60;1.30;;;;;;;-142.75;100.00;75761.34;5047020;28;20115;-61
2023/07/05 06:09:16;;;;;;;3.13;1.10;;;;;;;-142.75;100.00;75757.41;5047240;28;20120;-60
2023/07/05 06:11:42;;;;;;;5.13;1.10;;;;;;;-142.75;100.00;75765.25;5047428;28;20033;-61
2023/07/05 06:14:08;;;;;;;4.07;1.13;;;;;;;-142.75;100.00;75792.81;5047116;28;20056;-62
2023/07/05 06:16:34;;;;;;;9.55;1.13;;;;;;;-142.75;100.00;75804.63;5046888;28;20067;-63
2023/07/05 06:19:01;;;;;;;6.10;0.93;;;;;;;-142.75;100.00;75810.53;5046820;28;20025;-64
2023/07/05 06:21:26;;;;;;;2.40;1.08;;;;;;;-142.75;100.00;75800.69;5047115;28;20029;-63
2023/07/05 06:23:52;;;;;;;3.38;0.70;;;;;;;-142.75;100.00;75810.53;5047040;28;20025;-62
2023/07/05 06:26:18;;;;;;;7.78;1.00;;;;;;;-142.75;100.00;75812.50;5046610;28;20025;-58
2023/07/05 06:28:44;;;;;;;8.00;1.38;;;;;;;-142.75;100.00;75794.78;5046958;28;20027;-59
2023/07/05 06:31:10;;;;;;;9.48;1.63;;;;;;;-142.75;100.00;75779.03;5046745;28;20447;-62
2023/07/05 06:33:36;;;;;;;6.72;1.10;;;;;;;-142.75;100.00;75777.06;5046228;28;20250;-62
2023/07/05 06:36:02;;;;;;;11.18;1.40;;;;;;;-142.75;100.00;75751.50;5046551;28;20040;-63
2023/07/05 06:38:29;;;;;;;5.63;1.55;;;;;;;-142.75;100.00;75751.50;5046416;28;20029;-63
2023/07/05 06:40:55;;;;;;;4.57;1.52;;;;;;;-142.75;100.00;75735.75;5050703;28;20032;-62
2023/07/05 06:43:22;;;;;;;5.80;1.45;;;;;;;-142.75;100.00;75716.06;5050521;28;20094;-63
2023/07/05 06:45:50;;;;;;;7.65;1.50;;;;;;;-142.75;100.00;75706.22;5046302;28;20043;-62
2023/07/05 06:48:15;;;;;;;8.98;1.90;;;;;;;-142.75;100.00;75723.94;5045939;28;20079;-61
2023/07/05 06:50:41;;;;;;;3.85;1.92;;;;;;;-142.75;100.00;75731.81;5046324;28;20029;-61
2023/07/05 06:53:06;;;;;;;12.07;2.38;;;;;;;-142.75;100.00;75731.81;5046821;28;20201;-62
2023/07/05 06:55:31;;;;;;;12.05;2.53;;;;;;;-142.75;100.00;75733.78;5045740;28;20115;-62
2023/07/05 06:57:57;;;;;;;13.07;2.10;;;;;;;-142.75;100.00;75712.13;5046193;28;20025;-62
2023/07/05 07:00:22;;;;;;;9.98;2.20;;;;;;;-142.75;100.00;75725.91;5046385;28;20105;-62
2023/07/05 07:02:48;;;;;;;3.78;2.15;;;;;;;-142.75;100.00;75745.59;5046010;28;20108;-62
2023/07/05 07:05:15;;;;;;;8.55;2.60;;;;;;;-142.75;100.00;75725.91;5046125;28;20502;-62
2023/07/05 07:07:40;;;;;;;10.93;2.53;;;;;;;-142.75;100.00;75727.88;5048420;28;20021;-62
2023/07/05 07:10:06;;;;;;;13.82;2.90;;;;;;;-142.75;100.00;75733.78;5047172;28;20071;-63
2023/07/05 07:12:31;;;;;;;10.90;2.88;;;;;;;-142.75;100.00;75725.91;5043797;28;20028;-61
2023/07/05 07:14:57;;;;;;;10.25;2.50;;;;;;;-142.75;100.00;75725.91;5043262;28;20036;-61
2023/07/05 07:17:23;;;;;;;5.68;2.05;;;;;;;-142.75;100.00;75747.56;5045263;28;20052;-62
2023/07/05 07:19:50;;;;;;;7.13;2.35;;;;;;;-142.75;100.00;75747.56;5044441;28;20086;-62
2023/07/05 07:22:15;;;;;;;6.70;2.20;;;;;;;-142.75;100.00;75761.34;5045995;28;20029;-62
2023/07/05 07:24:42;;;;;;;11.45;2.63;;;;;;;-142.75;100.00;75767.22;5045214;28;20466;-63
2023/07/05 07:27:08;;;;;;;10.70;2.50;;;;;;;-142.75;100.00;75769.19;5045398;28;20025;-61
2023/07/05 07:29:34;;;;;;;8.15;2.45;;;;;;;-142.75;100.00;75781.00;5045530;28;20070;-62
2023/07/05 07:32:00;;;;;;;7.20;2.70;;;;;;;-142.75;100.00;75777.06;5044716;28;20032;-62
2023/07/05 07:34:26;;;;;;;9.68;2.47;;;;;;;-142.75;100.00;75784.94;5040809;28;20025;-62
2023/07/05 07:36:51;;;;;;;13.20;2.47;;;;;;;-142.75;100.00;75782.97;5043385;28;20029;-62
2023/07/05 07:39:16;;;;;;;7.57;2.25;;;;;;;-142.75;100.00;75786.91;5043407;28;20047;-62
2023/07/05 07:41:42;;;;;;;8.65;2.80;;;;;;;-142.75;100.00;75788.88;5042462;28;20029;-62
2023/07/05 07:44:09;;;;;;;6.15;2.58;;;;;;;-142.75;100.00;75771.16;5041135;28;20029;-63
2023/07/05 07:46:36;;;;;;;8.57;2.50;;;;;;;-142.75;100.00;75771.16;5043298;28;20029;-62
2023/07/05 07:49:03;;;;;;;12.38;3.08;;;;;;;-142.75;100.00;75798.72;5043147;28;20090;-62
2023/07/05 07:51:31;;;;;;;11.20;3.25;;;;;;;-142.75;100.00;75798.72;5042673;28;20454;-63
2023/07/05 07:53:56;;;;;;;10.50;3.58;;;;;;;-142.75;100.00;75794.78;5040727;28;20091;-64
2023/07/05 07:56:24;;;;;;;6.25;2.55;;;;;;;-142.75;100.00;75773.13;5044009;28;20033;-61
2023/07/05 07:58:52;;;;;;;6.95;2.80;;;;;;;-142.75;100.00;75769.19;5042816;28;20029;-62
2023/07/05 08:01:28;;;;;;;9.13;2.92;;;;;;;-142.75;100.00;75751.50;5041228;28;20025;-62
2023/07/05 08:03:56;;;;;;;7.82;2.65;;;;;;;-142.75;100.00;75755.44;5042947;28;20119;-63
2023/07/05 08:06:29;;;;;;;13.20;2.85;;;;;;;-142.75;100.00;75729.84;5043654;28;20412;-63
2023/07/05 08:08:55;;;;;;;8.07;2.63;;;;;;;-142.75;100.00;75767.22;5042425;28;20025;-63
2023/07/05 08:11:20;;;;;;;9.23;2.60;;;;;;;-142.75;100.00;75759.38;5041974;28;20111;-63
2023/07/05 08:13:48;;;;;;;6.90;2.28;;;;;;;-142.75;100.00;75759.38;5043806;28;20025;-60
2023/07/05 08:16:14;;;;;;;11.70;2.30;;;;;;;-142.75;100.00;75761.34;5043379;28;20107;-62
2023/07/05 08:18:40;;;;;;;12.98;2.53;;;;;;;-142.75;100.00;75763.28;5040177;28;20488;-63
2023/07/05 08:21:06;;;;;;;8.00;2.55;;;;;;;-142.75;100.00;75751.50;5039812;28;20048;-62
2023/07/05 08:23:31;;;;;;;7.82;2.20;;;;;;;-142.75;100.00;75749.53;5042172;28;20025;-62
2023/07/05 08:25:57;;;;;;;10.13;2.25;;;;;;;-142.75;100.00;75751.50;5042698;28;20488;-62
2023/07/05 08:28:23;;;;;;;11.65;2.17;;;;;;;-142.75;100.00;75747.56;5044270;28;20025;-63
2023/07/05 08:30:54;;;;;;;13.10;2.05;;;;;;;-142.75;100.00;75725.91;5043948;28;20159;-62
2023/07/05 08:33:21;;;;;;;12.50;2.47;;;;;;;-142.75;100.00;75729.84;5044656;28;20669;-63
2023/07/05 08:35:47;;;;;;;10.43;2.38;;;;;;;-142.75;100.00;75716.06;5044596;28;20033;-62
2023/07/05 08:38:12;;;;;;;6.38;2.90;;;;;;;-142.75;100.00;75731.81;5045092;28;20029;-63
2023/07/05 08:40:42;;;;;;;9.70;1.98;;;;;;;-142.75;100.00;75721.97;5043384;28;20087;-62
2023/07/05 08:43:29;;;;;;;12.30;2.25;;;;;;;-142.75;100.00;75704.25;5043673;28;20032;-63
2023/07/05 08:46:02;;;;;;;8.95;1.77;;;;;;;-142.75;100.00;75727.88;5044533;28;20021;-64
2023/07/05 08:48:30;;;;;;;8.05;1.90;;;;;;;-142.75;100.00;75708.19;5043450;28;20029;-63
2023/07/05 08:50:56;;;;;;;6.85;2.08;;;;;;;-142.75;100.00;75674.72;5044137;28;20033;-61
2023/07/05 08:53:23;;;;;;;7.53;2.10;;;;;;;-142.75;100.00;75674.72;5044902;28;20021;-62
2023/07/05 08:56:04;;;;;;;4.22;1.73;;;;;;;-142.75;100.00;75659.00;5044032;28;20112;-62
2023/07/05 08:58:57;;;;;;;5.75;1.90;;;;;;;-142.75;100.00;75692.44;5044656;28;20082;-62
2023/07/05 09:01:30;;;;;;;12.20;2.30;;;;;;;-142.75;100.00;75718.03;5044132;28;20413;-62
2023/07/05 09:03:56;;;;;;;5.57;1.60;;;;;;;-142.75;100.00;75727.88;5043175;28;20025;-62
2023/07/05 09:06:49;;;;;;;7.60;1.90;;;;;;;-142.75;100.00;75731.81;5044191;28;20036;-63
2023/07/05 09:09:41;;;;;;;8.32;2.05;;;;;;;-142.75;100.00;75731.81;5043866;28;20037;-61
2023/07/05 09:12:30;;;;;;;6.18;1.85;;;;;;;-142.75;100.00;75745.59;5045399;28;20105;-59
2023/07/05 09:15:01;;;;;;;9.35;2.08;;;;;;;-142.75;100.00;75761.34;5047923;28;20712;-62
2023/07/05 09:17:47;;;;;;;6.43;1.80;;;;;;;-142.75;100.00;75755.44;5048109;28;20373;-62
2023/07/05 09:20:28;;;;;;;8.63;1.93;;;;;;;-142.75;100.00;75775.09;5048400;28;20025;-62
2023/07/05 09:22:54;;;;;;;9.13;2.00;;;;;;;-142.75;100.00;75771.16;5048029;28;20029;-63
2023/07/05 09:25:22;;;;;;;8.88;2.22;;;;;;;-142.75;100.00;75779.03;5051457;28;20017;-62
2023/07/05 09:27:55;;;;;;;9.13;2.15;;;;;;;-142.75;100.00;75747.56;5049795;28;20095;-62
2023/07/05 09:30:24;;;;;;;10.10;2.33;;;;;;;-142.75;100.00;75731.81;5047602;28;20020;-63
2023/07/05 09:33:02;;;;;;;6.57;1.85;;;;;;;-142.75;100.00;75745.59;5047515;28;20028;-62
2023/07/05 09:35:31;;;;;;;8.20;1.30;;;;;;;-142.75;100.00;75753.47;5047342;28;20540;-62
2023/07/05 09:38:00;;;;;;;8.35;2.42;;;;;;;-142.75;100.00;75747.56;5047718;28;20033;-62
2023/07/05 09:40:29;;;;;;;8.43;1.95;;;;;;;-142.75;100.00;75761.34;5047374;28;20025;-60
2023/07/05 09:42:56;;;;;;;6.55;2.00;;;;;;;-142.75;100.00;75747.56;5047464;28;20041;-62
2023/07/05 09:45:22;;;;;;;10.55;2.00;;;;;;;-142.75;100.00;75735.75;5047152;28;20032;-61
2023/07/05 09:47:52;;;;;;;6.88;1.70;;;;;;;-142.75;100.00;75773.13;5047812;28;20392;-62
2023/07/05 09:50:20;;;;;;;8.57;1.98;;;;;;;-142.75;100.00;75765.25;5047661;28;20025;-62
2023/07/05 09:52:50;;;;;;;10.63;1.70;;;;;;;-142.75;100.00;75792.81;5048345;28;20120;-62
2023/07/05 09:55:17;;;;;;;8.57;1.25;;;;;;;-142.75;100.00;75800.69;5047426;28;20500;-62
2023/07/05 09:57:43;;;;;;;10.18;1.80;;;;;;;-142.75;100.00;75802.66;5047361;28;20108;-62
2023/07/05 10:00:26;;;;;;;5.40;1.27;;;;;;;-142.75;100.00;75782.97;5047240;28;20112;-61
2023/07/05 10:02:55;;;;;;;6.55;1.63;;;;;;;-142.75;100.00;75818.41;5047184;28;20162;-62
2023/07/05 10:05:26;;;;;;;6.05;1.60;;;;;;;-142.75;100.00;75784.94;5047033;28;20149;-60
2023/07/05 10:07:57;;;;;;;9.50;1.70;;;;;;;-142.75;100.00;75786.91;5046522;28;20029;-62
2023/07/05 10:10:32;;;;;;;10.90;1.58;;;;;;;-142.75;100.00;75800.69;5047003;28;20094;-62
2023/07/05 10:13:01;;;;;;;8.77;1.33;;;;;;;-142.75;100.00;75796.75;5047172;28;20036;-62
2023/07/05 10:15:27;;;;;;;5.72;1.10;;;;;;;-142.75;100.00;75794.78;5046998;28;20037;-62
2023/07/05 10:17:55;;;;;;;6.63;1.70;;;;;;;-142.75;100.00;75794.78;5046947;28;20036;-61
2023/07/05 10:20:26;;;;;;;8.43;1.73;;;;;;;-142.75;100.00;75779.03;5046774;28;20028;-62
2023/07/05 10:23:02;;;;;;;9.48;1.52;;;;;;;-142.75;100.00;75747.56;5045937;28;20025;-62
2023/07/05 10:25:34;;;;;;;8.27;1.65;;;;;;;-142.75;100.00;75739.69;5046937;28;20029;-62
2023/07/05 10:28:02;;;;;;;4.78;1.42;;;;;;;-142.75;100.00;75761.34;5045641;28;20021;-62
2023/07/05 10:30:29;;;;;;;9.68;1.30;;;;;;;-142.75;100.00;75782.97;5046719;28;20514;-63
2023/07/05 10:33:13;;;;;;;5.20;1.35;;;;;;;-142.75;100.00;75806.59;5047402;28;20024;-63
2023/07/05 10:35:51;;;;;;;7.13;1.27;;;;;;;-142.75;100.00;75838.09;5046444;28;20036;-63
2023/07/05 10:38:32;;;;;;;4.75;1.63;;;;;;;-142.75;100.00;75828.25;5046852;28;20550;-62
2023/07/05 10:41:01;;;;;;;14.73;2.00;;;;;;;-142.75;100.00;75816.44;5045851;28;20090;-63
2023/07/05 10:43:31;;;;;;;8.48;1.98;;;;;;;-142.75;100.00;75840.06;5050714;28;20032;-63
2023/07/05 10:45:57;;;;;;;3.88;1.10;;;;;;;-142.75;100.00;75861.69;5046768;28;20025;-63
2023/07/05 10:48:34;;;;;;;8.95;1.67;;;;;;;-142.75;100.00;75873.50;5046280;28;20032;-64
2023/07/05 10:51:01;;;;;;;5.82;1.70;;;;;;;-142.75;100.00;75851.88;5045982;28;20067;-63
2023/07/05 10:53:28;;;;;;;5.47;1.50;;;;;;;-142.75;100.00;75855.81;5046466;28;20401;-62
2023/07/05 10:56:09;;;;;;;5.13;1.58;;;;;;;-142.75;100.00;75838.09;5045964;28;20021;-63
2023/07/05 10:58:43;;;;;;;5.00;1.70;;;;;;;-142.75;100.00;75865.63;5046340;28;20557;-63
2023/07/05 11:01:24;;;;;;;6.85;1.20;;;;;;;-142.75;100.00;75838.09;5046309;28;20105;-61
2023/07/05 11:04:00;;;;;;;7.28;1.83;;;;;;;-142.75;100.00;75782.97;5045851;28;20083;-63
2023/07/05 11:06:27;;;;;;;;;;;;;;;-142.75;100.00;75747.56;5046393;28;20036;-63
2023/07/05 11:08:53;;;;;;;6.15;1.40;;;;;;;-142.75;100.00;75751.50;5047160;28;19913;-63
2023/07/05 11:11:27;;;;;;;6.60;1.00;;;;;;;-142.75;100.00;75716.06;5051855;28;20388;-61
2023/07/05 11:13:53;;;;;;;5.90;1.60;;;;;;;-142.75;100.00;75712.13;5046428;28;20021;-63